createdAt,value
2023-02-09T00:00:33.171Z,88.79
2023-02-09T00:01:33.206Z,88.98
2023-02-09T00:02:33.234Z,88.89
2023-02-09T00:03:33.313Z,88.79
2023-02-09T00:04:33.291Z,88.98
2023-02-09T00:06:33.643Z,89.08
2023-02-09T00:07:33.365Z,88.79
2023-02-09T00:09:33.426Z,88.79
2023-02-09T00:10:33.444Z,88.98
2023-02-09T00:11:33.474Z,88.98
2023-02-09T00:13:33.832Z,88.79
2023-02-09T00:14:33.562Z,88.70
2023-02-09T00:15:33.601Z,89.08
2023-02-09T00:16:33.681Z,89.08
2023-02-09T00:17:33.645Z,88.98
2023-02-09T00:18:33.668Z,89.18
2023-02-09T00:20:35.118Z,89.08
2023-02-09T00:22:33.786Z,88.94
2023-02-09T00:23:33.806Z,88.94
2023-02-09T00:24:33.825Z,88.94
2023-02-09T00:25:33.870Z,88.89
2023-02-09T00:26:33.922Z,88.89
2023-02-09T00:27:34.225Z,89.08
2023-02-09T00:28:33.952Z,88.94
2023-02-09T00:29:33.989Z,88.84
2023-02-09T00:30:34.214Z,88.94
2023-02-09T00:31:34.142Z,88.94
2023-02-09T00:32:34.063Z,88.75
2023-02-09T00:33:34.085Z,88.75
2023-02-09T00:34:34.401Z,89.04
2023-02-09T00:35:34.126Z,88.94
2023-02-09T00:36:34.176Z,89.04
2023-02-09T00:37:34.183Z,88.94
2023-02-09T00:39:34.237Z,88.75
2023-02-09T00:40:34.256Z,88.94
2023-02-09T00:41:34.595Z,89.04
2023-02-09T00:42:34.310Z,89.13
2023-02-09T00:43:34.341Z,88.75
2023-02-09T00:44:34.363Z,88.94
2023-02-09T00:45:34.453Z,89.13
2023-02-09T00:46:34.416Z,88.75
2023-02-09T00:47:34.481Z,89.23
2023-02-09T00:48:34.780Z,89.13
2023-02-09T00:49:34.505Z,89.13
2023-02-09T00:51:34.556Z,89.23
2023-02-09T00:52:34.580Z,89.13
2023-02-09T00:53:34.612Z,89.32
2023-02-09T00:54:34.634Z,88.75
2023-02-09T00:55:34.975Z,88.84
2023-02-09T00:56:34.685Z,89.23
2023-02-09T00:57:34.771Z,89.23
2023-02-09T00:58:34.746Z,89.32
2023-02-09T00:59:34.789Z,88.84
2023-02-09T01:00:34.839Z,89.23
2023-02-09T01:02:35.153Z,89.42
2023-02-09T01:04:34.977Z,89.13
2023-02-09T01:05:34.931Z,89.23
2023-02-09T01:06:34.959Z,89.32
2023-02-09T01:07:34.987Z,88.84
2023-02-09T01:08:35.055Z,89.32
2023-02-09T01:09:35.337Z,89.32
2023-02-09T01:11:35.097Z,89.13
2023-02-09T01:12:35.133Z,88.94
2023-02-09T01:13:35.154Z,89.23
2023-02-09T01:14:35.179Z,89.13
2023-02-09T01:15:35.199Z,89.32
2023-02-09T01:16:35.577Z,88.84
2023-02-09T01:17:35.250Z,89.13
2023-02-09T01:18:35.280Z,89.13
2023-02-09T01:19:35.320Z,89.32
2023-02-09T01:20:35.356Z,89.13
2023-02-09T01:21:35.355Z,89.13
2023-02-09T01:22:35.391Z,89.13
2023-02-09T01:23:35.764Z,88.84
2023-02-09T01:24:35.440Z,89.04
2023-02-09T01:25:35.472Z,89.32
2023-02-09T01:26:35.500Z,88.84
2023-02-09T01:27:35.519Z,89.23
2023-02-09T01:28:35.562Z,89.32
2023-02-09T01:29:35.585Z,89.32
2023-02-09T01:30:35.927Z,88.65
2023-02-09T01:31:35.854Z,89.04
2023-02-09T01:32:35.655Z,89.04
2023-02-09T01:33:35.778Z,89.23
2023-02-09T01:34:35.711Z,89.23
2023-02-09T01:35:35.744Z,88.99
2023-02-09T01:36:35.789Z,89.18
2023-02-09T01:37:36.091Z,89.18
2023-02-09T01:38:35.828Z,89.09
2023-02-09T01:39:35.841Z,89.28
2023-02-09T01:41:35.903Z,88.99
2023-02-09T01:42:35.933Z,89.28
2023-02-09T01:43:36.256Z,89.28
2023-02-09T01:44:35.978Z,89.09
2023-02-09T01:46:36.171Z,89.18
2023-02-09T01:47:36.061Z,89.18
2023-02-09T01:48:36.090Z,89.09
2023-02-09T01:50:36.461Z,88.90
2023-02-09T01:52:36.216Z,88.90
2023-02-09T01:53:36.238Z,89.09
2023-02-09T01:54:36.265Z,88.99
2023-02-09T01:55:36.304Z,89.18
2023-02-09T01:56:36.559Z,88.99
2023-02-09T01:57:36.338Z,89.28
2023-02-09T01:58:36.354Z,88.90
2023-02-09T01:59:36.387Z,88.99
2023-02-09T02:00:36.425Z,88.99
2023-02-09T02:01:36.475Z,89.18
2023-02-09T02:03:36.804Z,88.90
2023-02-09T02:04:36.518Z,88.99
2023-02-09T02:05:36.546Z,88.90
2023-02-09T02:06:36.580Z,88.90
2023-02-09T02:07:36.604Z,88.99
2023-02-09T02:08:36.641Z,88.99
2023-02-09T02:09:36.967Z,88.99
2023-02-09T02:10:36.695Z,89.66
2023-02-09T02:11:36.704Z,89.76
2023-02-09T02:12:36.729Z,88.99
2023-02-09T02:13:36.757Z,89.09
2023-02-09T02:14:36.792Z,89.18
2023-02-09T02:15:36.860Z,89.09
2023-02-09T02:16:37.139Z,89.09
2023-02-09T02:17:36.895Z,88.99
2023-02-09T02:18:36.897Z,89.66
2023-02-09T02:19:36.926Z,89.66
2023-02-09T02:20:36.960Z,89.18
2023-02-09T02:22:37.295Z,89.37
2023-02-09T02:23:37.021Z,89.76
2023-02-09T02:24:37.064Z,89.37
2023-02-09T02:25:37.074Z,89.37
2023-02-09T02:26:37.102Z,89.37
2023-02-09T02:28:37.160Z,89.47
2023-02-09T02:29:37.481Z,89.76
2023-02-09T02:30:37.328Z,89.47
2023-02-09T02:32:37.280Z,89.47
2023-02-09T02:33:37.285Z,89.76
2023-02-09T02:34:37.310Z,89.28
2023-02-09T02:36:37.671Z,89.76
2023-02-09T02:38:37.445Z,89.86
2023-02-09T02:39:37.448Z,89.37
2023-02-09T02:40:37.493Z,89.28
2023-02-09T02:41:37.502Z,89.76
2023-02-09T02:42:37.529Z,89.37
2023-02-09T02:43:37.864Z,89.57
2023-02-09T02:44:37.603Z,89.86
2023-02-09T02:45:37.612Z,89.28
2023-02-09T02:47:37.679Z,89.28
2023-02-09T02:48:37.687Z,89.76
2023-02-09T02:49:37.723Z,89.66
2023-02-09T02:50:38.081Z,89.76
2023-02-09T02:51:37.769Z,89.57
2023-02-09T02:52:37.796Z,89.66
2023-02-09T02:53:37.835Z,89.28
2023-02-09T02:54:37.858Z,89.47
2023-02-09T02:55:37.876Z,89.57
2023-02-09T02:56:37.925Z,89.28
2023-02-09T02:57:38.244Z,89.28
2023-02-09T02:59:37.988Z,89.66
2023-02-09T03:00:38.011Z,89.66
2023-02-09T03:01:38.071Z,89.57
2023-02-09T03:02:38.067Z,89.86
2023-02-09T03:03:38.088Z,89.47
2023-02-09T03:04:38.420Z,89.37
2023-02-09T03:05:38.227Z,89.76
2023-02-09T03:06:38.181Z,89.28
2023-02-09T03:07:38.202Z,89.28
2023-02-09T03:08:38.230Z,89.28
2023-02-09T03:09:38.313Z,89.37
2023-02-09T03:10:38.636Z,89.76
2023-02-09T03:11:38.302Z,89.66
2023-02-09T03:14:38.428Z,89.57
2023-02-09T03:15:38.415Z,89.66
2023-02-09T03:16:38.744Z,89.76
2023-02-09T03:17:38.477Z,89.37
2023-02-09T03:18:38.498Z,89.57
2023-02-09T03:19:38.523Z,89.76
2023-02-09T03:21:38.574Z,89.57
2023-02-09T03:22:38.608Z,89.18
2023-02-09T03:23:38.929Z,89.57
2023-02-09T03:24:38.752Z,89.66
2023-02-09T03:25:38.684Z,89.76
2023-02-09T03:26:38.712Z,89.57
2023-02-09T03:27:38.734Z,89.57
2023-02-09T03:28:38.758Z,89.28
2023-02-09T03:29:39.088Z,89.47
2023-02-09T03:30:38.917Z,89.47
2023-02-09T03:31:38.914Z,89.52
2023-02-09T03:33:38.894Z,89.28
2023-02-09T03:34:38.916Z,89.37
2023-02-09T03:35:38.949Z,89.33
2023-02-09T03:36:39.280Z,89.33
2023-02-09T03:38:39.035Z,89.14
2023-02-09T03:40:39.077Z,89.43
2023-02-09T03:41:39.123Z,89.23
2023-02-09T03:42:39.130Z,89.52
2023-02-09T03:43:39.462Z,89.43
2023-02-09T03:44:39.191Z,89.43
2023-02-09T03:45:39.207Z,89.33
2023-02-09T03:46:39.317Z,89.43
2023-02-09T03:47:39.268Z,89.14
2023-02-09T03:48:39.295Z,89.47
2023-02-09T03:49:39.478Z,89.52
2023-02-09T03:50:39.647Z,89.33
2023-02-09T03:51:39.385Z,89.52
2023-02-09T03:52:39.393Z,89.43
2023-02-09T03:53:39.420Z,89.52
2023-02-09T03:54:39.447Z,89.23
2023-02-09T03:55:39.483Z,89.33
2023-02-09T03:57:39.830Z,89.43
2023-02-09T03:58:39.560Z,89.81
2023-02-09T03:59:39.576Z,89.72
2023-02-09T04:00:39.658Z,89.52
2023-02-09T04:02:39.774Z,89.81
2023-02-09T04:04:40.030Z,89.52
2023-02-09T04:05:39.732Z,89.23
2023-02-09T04:06:39.764Z,89.43
2023-02-09T04:07:39.796Z,89.72
2023-02-09T04:08:39.813Z,89.62
2023-02-09T04:09:39.841Z,89.72
2023-02-09T04:10:39.879Z,89.43
2023-02-09T04:11:40.203Z,89.52
2023-02-09T04:12:39.926Z,89.72
2023-02-09T04:13:39.945Z,89.62
2023-02-09T04:14:39.982Z,89.52
2023-02-09T04:15:40.005Z,89.14
2023-02-09T04:16:40.131Z,89.72
2023-02-09T04:17:40.056Z,89.52
2023-02-09T04:18:40.402Z,89.72
2023-02-09T04:19:40.339Z,89.72
2023-02-09T04:20:40.126Z,89.72
2023-02-09T04:21:40.183Z,89.72
2023-02-09T04:22:40.205Z,89.23
2023-02-09T04:23:40.216Z,89.23
2023-02-09T04:24:40.238Z,89.33
2023-02-09T04:25:40.561Z,88.95
2023-02-09T04:26:40.292Z,89.33
2023-02-09T04:27:40.319Z,89.23
2023-02-09T04:28:40.343Z,89.52
2023-02-09T04:29:40.421Z,89.62
2023-02-09T04:30:40.399Z,89.43
2023-02-09T04:31:40.460Z,89.72
2023-02-09T04:32:40.757Z,89.23
2023-02-09T04:33:40.477Z,89.52
2023-02-09T04:34:40.526Z,89.43
2023-02-09T04:35:40.529Z,89.14
2023-02-09T04:36:40.577Z,89.23
2023-02-09T04:37:40.585Z,89.33
2023-02-09T04:38:40.616Z,89.62
2023-02-09T04:39:40.934Z,89.72
2023-02-09T04:40:40.665Z,89.52
2023-02-09T04:41:40.693Z,89.72
2023-02-09T04:42:40.725Z,89.43
2023-02-09T04:43:40.747Z,89.52
2023-02-09T04:44:40.781Z,89.52
2023-02-09T04:45:40.833Z,89.62
2023-02-09T04:46:41.181Z,89.52
2023-02-09T04:47:40.850Z,89.81
2023-02-09T04:49:40.902Z,89.52
2023-02-09T04:50:40.948Z,89.72
2023-02-09T04:51:40.956Z,89.72
2023-02-09T04:52:40.979Z,89.72
2023-02-09T04:53:41.265Z,89.23
2023-02-09T04:54:41.036Z,89.62
2023-02-09T04:55:41.070Z,89.43
2023-02-09T04:56:41.087Z,89.33
2023-02-09T04:57:41.118Z,89.52
2023-02-09T04:58:41.146Z,89.81
2023-02-09T04:59:41.173Z,89.62
2023-02-09T05:00:41.531Z,89.52
2023-02-09T05:01:41.219Z,89.81
2023-02-09T05:02:41.254Z,89.72
2023-02-09T05:03:41.322Z,89.72
2023-02-09T05:04:41.298Z,89.72
2023-02-09T05:05:41.331Z,89.52
2023-02-09T05:06:41.675Z,89.81
2023-02-09T05:07:41.378Z,89.23
2023-02-09T05:08:41.402Z,89.52
2023-02-09T05:09:41.427Z,89.33
2023-02-09T05:10:41.458Z,89.62
2023-02-09T05:11:41.480Z,89.52
2023-02-09T05:12:41.810Z,89.52
2023-02-09T05:13:41.534Z,89.72
2023-02-09T05:14:41.566Z,89.62
2023-02-09T05:15:41.585Z,89.72
2023-02-09T05:16:41.627Z,89.43
2023-02-09T05:17:41.646Z,88.76
2023-02-09T05:18:41.965Z,88.85
2023-02-09T05:19:41.693Z,89.72
2023-02-09T05:20:41.829Z,89.72
2023-02-09T05:21:41.751Z,89.52
2023-02-09T05:22:41.792Z,89.23
2023-02-09T05:23:41.804Z,88.95
2023-02-09T05:24:41.829Z,89.43
2023-02-09T05:25:42.162Z,89.72
2023-02-09T05:26:41.885Z,89.43
2023-02-09T05:27:41.943Z,89.14
2023-02-09T05:28:41.939Z,89.52
2023-02-09T05:29:41.962Z,89.72
2023-02-09T05:30:42.047Z,89.72
2023-02-09T05:31:42.208Z,89.72
2023-02-09T05:32:42.344Z,89.23
2023-02-09T05:33:42.163Z,89.23
2023-02-09T05:34:42.090Z,89.52
2023-02-09T05:35:42.118Z,89.52
2023-02-09T05:36:42.137Z,89.23
2023-02-09T05:37:42.173Z,89.33
2023-02-09T05:38:42.217Z,89.52
2023-02-09T05:39:42.528Z,89.72
2023-02-09T05:40:44.210Z,89.23
2023-02-09T05:41:42.446Z,89.72
2023-02-09T05:42:42.356Z,89.43
2023-02-09T05:43:42.330Z,89.33
2023-02-09T05:44:42.379Z,89.52
2023-02-09T05:45:42.399Z,89.52
2023-02-09T05:46:42.739Z,89.52
2023-02-09T05:47:42.462Z,89.52
2023-02-09T05:48:42.475Z,89.43
2023-02-09T05:49:42.496Z,89.33
2023-02-09T05:51:42.535Z,89.90
2023-02-09T05:52:42.595Z,89.33
2023-02-09T05:53:42.894Z,89.52
2023-02-09T05:54:42.633Z,89.81
2023-02-09T05:55:42.637Z,89.90
2023-02-09T05:56:42.665Z,89.62
2023-02-09T05:57:42.718Z,89.81
2023-02-09T05:58:42.726Z,89.62
2023-02-09T05:59:42.761Z,89.72
2023-02-09T06:00:43.513Z,89.62
2023-02-09T06:01:42.795Z,89.72
2023-02-09T06:02:42.888Z,89.90
2023-02-09T06:03:42.937Z,89.90
2023-02-09T06:04:42.887Z,89.76
2023-02-09T06:05:42.900Z,89.81
2023-02-09T06:06:42.927Z,89.52
2023-02-09T06:07:43.270Z,89.72
2023-02-09T06:08:42.979Z,89.72
2023-02-09T06:09:43.016Z,89.81
2023-02-09T06:10:43.188Z,89.52
2023-02-09T06:11:43.157Z,89.62
2023-02-09T06:12:43.088Z,89.81
2023-02-09T06:13:43.160Z,89.90
2023-02-09T06:14:43.436Z,89.52
2023-02-09T06:15:43.169Z,89.72
2023-02-09T06:16:43.193Z,89.52
2023-02-09T06:18:43.339Z,89.72
2023-02-09T06:19:43.310Z,89.90
2023-02-09T06:20:43.518Z,89.43
2023-02-09T06:21:43.666Z,89.52
2023-02-09T06:22:43.346Z,89.90
2023-02-09T06:23:43.382Z,89.52
2023-02-09T06:24:43.396Z,89.81
2023-02-09T06:25:43.437Z,90.58
2023-02-09T06:26:43.473Z,90.09
2023-02-09T06:27:43.478Z,90.39
2023-02-09T06:28:43.808Z,89.90
2023-02-09T06:29:43.532Z,90.09
2023-02-09T06:30:43.654Z,89.81
2023-02-09T06:31:43.750Z,89.81
2023-02-09T06:32:43.619Z,89.52
2023-02-09T06:33:43.685Z,89.72
2023-02-09T06:35:44.006Z,89.33
2023-02-09T06:36:43.736Z,89.62
2023-02-09T06:37:43.744Z,89.43
2023-02-09T06:38:43.787Z,89.72
2023-02-09T06:39:43.806Z,89.23
2023-02-09T06:40:44.197Z,89.23
2023-02-09T06:41:43.857Z,89.52
2023-02-09T06:42:44.453Z,89.14
2023-02-09T06:43:43.903Z,88.95
2023-02-09T06:44:43.923Z,89.04
2023-02-09T06:45:43.972Z,88.95
2023-02-09T06:46:44.026Z,88.95
2023-02-09T06:49:44.365Z,88.95
2023-02-09T06:50:44.610Z,89.04
2023-02-09T06:51:44.106Z,89.14
2023-02-09T06:52:44.138Z,89.04
2023-02-09T06:53:44.173Z,88.95
2023-02-09T06:54:45.179Z,89.04
2023-02-09T06:55:44.240Z,89.52
2023-02-09T06:56:44.237Z,89.81
2023-02-09T06:57:44.280Z,89.81
2023-02-09T06:58:44.312Z,90.00
2023-02-09T06:59:44.333Z,90.09
2023-02-09T07:00:44.665Z,90.19
2023-02-09T07:01:44.453Z,89.81
2023-02-09T07:02:44.840Z,89.90
2023-02-09T07:03:44.438Z,90.00
2023-02-09T07:04:44.470Z,90.09
2023-02-09T07:05:44.478Z,89.81
2023-02-09T07:06:44.510Z,89.62
2023-02-09T07:07:44.530Z,89.90
2023-02-09T07:08:44.869Z,89.52
2023-02-09T07:09:44.595Z,89.33
2023-02-09T07:10:44.962Z,89.23
2023-02-09T07:11:44.635Z,89.52
2023-02-09T07:12:44.669Z,89.62
2023-02-09T07:13:44.691Z,89.43
2023-02-09T07:14:44.731Z,89.90
2023-02-09T07:15:44.798Z,89.81
2023-02-09T07:16:44.765Z,89.90
2023-02-09T07:17:44.797Z,89.52
2023-02-09T07:18:44.820Z,89.72
2023-02-09T07:19:44.850Z,89.72
2023-02-09T07:20:45.481Z,89.43
2023-02-09T07:21:44.916Z,89.52
2023-02-09T07:22:44.922Z,89.43
2023-02-09T07:23:44.997Z,89.43
2023-02-09T07:24:45.005Z,89.23
2023-02-09T07:25:45.000Z,89.43
2023-02-09T07:26:45.030Z,89.72
2023-02-09T07:27:45.368Z,89.72
2023-02-09T07:28:45.087Z,89.62
2023-02-09T07:29:45.108Z,89.33
2023-02-09T07:30:45.575Z,89.33
2023-02-09T07:31:45.323Z,88.95
2023-02-09T07:32:45.184Z,88.95
2023-02-09T07:33:45.220Z,88.95
2023-02-09T07:34:45.543Z,89.04
2023-02-09T07:35:45.268Z,89.14
2023-02-09T07:36:47.777Z,89.23
2023-02-09T07:37:45.317Z,88.76
2023-02-09T07:38:45.341Z,89.14
2023-02-09T07:39:45.368Z,88.95
2023-02-09T07:40:45.746Z,89.23
2023-02-09T07:41:45.477Z,88.56
2023-02-09T07:42:45.451Z,88.85
2023-02-09T07:43:45.475Z,88.85
2023-02-09T07:44:45.528Z,88.66
2023-02-09T07:45:45.828Z,88.85
2023-02-09T07:46:45.768Z,88.76
2023-02-09T07:47:45.877Z,88.66
2023-02-09T07:48:45.619Z,88.37
2023-02-09T07:49:45.626Z,88.66
2023-02-09T07:50:45.984Z,88.56
2023-02-09T07:51:45.735Z,88.76
2023-02-09T07:52:45.707Z,88.76
2023-02-09T07:53:45.731Z,87.80
2023-02-09T07:54:46.064Z,88.18
2023-02-09T07:55:46.082Z,88.09
2023-02-09T07:56:45.813Z,88.37
2023-02-09T07:57:45.844Z,88.28
2023-02-09T07:58:45.886Z,88.18
2023-02-09T07:59:45.888Z,88.56
2023-02-09T08:00:46.053Z,87.99
2023-02-09T08:02:46.107Z,88.28
2023-02-09T08:03:46.057Z,88.09
2023-02-09T08:04:46.140Z,87.90
2023-02-09T08:05:46.449Z,88.37
2023-02-09T08:06:46.083Z,88.28
2023-02-09T08:07:46.466Z,87.70
2023-02-09T08:08:46.127Z,87.80
2023-02-09T08:09:46.155Z,87.61
2023-02-09T08:10:46.192Z,87.84
2023-02-09T08:11:46.310Z,87.70
2023-02-09T08:12:46.233Z,87.90
2023-02-09T08:13:46.557Z,87.80
2023-02-09T08:14:46.287Z,87.99
2023-02-09T08:15:46.933Z,87.41
2023-02-09T08:17:46.361Z,87.80
2023-02-09T08:18:46.414Z,87.65
2023-02-09T08:19:46.420Z,87.99
2023-02-09T08:20:46.469Z,87.37
2023-02-09T08:21:46.477Z,87.23
2023-02-09T08:22:46.510Z,87.23
2023-02-09T08:23:46.527Z,87.23
2023-02-09T08:24:46.554Z,87.65
2023-02-09T08:26:46.961Z,87.74
2023-02-09T08:27:46.624Z,87.61
2023-02-09T08:28:46.790Z,87.61
2023-02-09T08:29:48.842Z,87.74
2023-02-09T08:30:47.037Z,87.74
2023-02-09T08:31:46.775Z,87.74
2023-02-09T08:32:46.786Z,87.84
2023-02-09T08:33:47.108Z,87.27
2023-02-09T08:34:46.831Z,87.37
2023-02-09T08:35:47.210Z,87.08
2023-02-09T08:36:46.878Z,87.27
2023-02-09T08:37:46.896Z,87.17
2023-02-09T08:38:46.924Z,87.17
2023-02-09T08:39:46.944Z,87.08
2023-02-09T08:40:46.979Z,86.98
2023-02-09T08:41:47.009Z,87.27
2023-02-09T08:42:47.037Z,87.37
2023-02-09T08:43:47.058Z,86.79
2023-02-09T08:44:47.083Z,86.98
2023-02-09T08:46:47.608Z,86.88
2023-02-09T08:47:47.211Z,86.60
2023-02-09T08:48:47.296Z,86.79
2023-02-09T08:49:47.208Z,86.69
2023-02-09T08:50:47.254Z,86.79
2023-02-09T08:51:47.267Z,86.98
2023-02-09T08:52:47.293Z,86.88
2023-02-09T08:53:47.634Z,86.88
2023-02-09T08:54:47.361Z,86.31
2023-02-09T08:55:47.801Z,86.50
2023-02-09T08:56:47.407Z,86.31
2023-02-09T08:58:47.457Z,86.41
2023-02-09T08:59:47.479Z,86.12
2023-02-09T09:00:47.983Z,86.41
2023-02-09T09:01:47.564Z,86.41
2023-02-09T09:02:47.577Z,86.60
2023-02-09T09:03:47.704Z,86.41
2023-02-09T09:04:47.615Z,86.60
2023-02-09T09:05:47.974Z,86.60
2023-02-09T09:06:47.681Z,86.21
2023-02-09T09:07:47.705Z,86.21
2023-02-09T09:08:47.718Z,86.31
2023-02-09T09:09:47.946Z,86.31
2023-02-09T09:10:47.785Z,86.02
2023-02-09T09:13:48.263Z,86.21
2023-02-09T09:14:47.918Z,85.93
2023-02-09T09:16:48.001Z,86.12
2023-02-09T09:19:48.413Z,85.54
2023-02-09T09:20:48.125Z,85.45
2023-02-09T09:21:48.075Z,85.54
2023-02-09T09:22:48.106Z,85.54
2023-02-09T09:23:48.658Z,85.74
2023-02-09T09:24:49.183Z,85.74
2023-02-09T09:25:48.750Z,85.25
2023-02-09T09:26:48.242Z,85.64
2023-02-09T09:27:48.377Z,85.54
2023-02-09T09:28:48.256Z,85.54
2023-02-09T09:29:48.287Z,85.35
2023-02-09T09:30:48.351Z,85.25
2023-02-09T09:31:48.714Z,85.64
2023-02-09T09:32:48.384Z,85.64
2023-02-09T09:34:48.477Z,85.74
2023-02-09T09:35:48.628Z,85.74
2023-02-09T09:36:48.467Z,85.25
2023-02-09T09:37:48.514Z,85.25
2023-02-09T09:38:48.841Z,84.88
2023-02-09T09:39:48.557Z,85.35
2023-02-09T09:40:48.576Z,85.25
2023-02-09T09:41:48.601Z,85.06
2023-02-09T09:42:48.622Z,84.88
2023-02-09T09:43:48.671Z,84.58
2023-02-09T09:45:50.320Z,84.58
2023-02-09T09:46:48.742Z,84.78
2023-02-09T09:47:48.766Z,84.97
2023-02-09T09:48:48.799Z,85.06
2023-02-09T09:49:48.808Z,84.88
2023-02-09T09:50:48.909Z,85.06
2023-02-09T09:51:48.886Z,84.78
2023-02-09T09:52:49.223Z,84.97
2023-02-09T09:53:48.920Z,84.97
2023-02-09T09:54:48.963Z,84.78
2023-02-09T09:55:49.365Z,84.58
2023-02-09T09:56:48.994Z,84.58
2023-02-09T09:57:49.026Z,85.64
2023-02-09T09:58:49.052Z,84.88
2023-02-09T09:59:49.383Z,85.64
2023-02-09T10:00:49.165Z,85.45
2023-02-09T10:01:49.141Z,85.45
2023-02-09T10:02:49.161Z,85.06
2023-02-09T10:03:49.196Z,85.06
2023-02-09T10:04:49.240Z,84.97
2023-02-09T10:06:49.566Z,84.88
2023-02-09T10:07:49.301Z,84.88
2023-02-09T10:08:49.324Z,85.21
2023-02-09T10:09:49.396Z,85.25
2023-02-09T10:10:49.390Z,84.58
2023-02-09T10:11:49.403Z,84.63
2023-02-09T10:12:49.432Z,84.72
2023-02-09T10:13:49.753Z,84.63
2023-02-09T10:14:49.482Z,84.34
2023-02-09T10:15:49.504Z,84.82
2023-02-09T10:16:49.592Z,84.72
2023-02-09T10:17:49.562Z,84.25
2023-02-09T10:18:49.587Z,84.63
2023-02-09T10:19:49.610Z,84.82
2023-02-09T10:21:49.694Z,84.63
2023-02-09T10:22:49.700Z,84.72
2023-02-09T10:23:49.786Z,84.72
2023-02-09T10:24:49.752Z,84.05
2023-02-09T10:25:49.777Z,84.25
2023-02-09T10:26:49.819Z,84.25
2023-02-09T10:27:50.137Z,84.25
2023-02-09T10:28:49.851Z,84.25
2023-02-09T10:29:49.875Z,83.86
2023-02-09T10:30:49.984Z,84.34
2023-02-09T10:31:50.180Z,84.15
2023-02-09T10:32:49.966Z,84.25
2023-02-09T10:33:49.986Z,84.25
2023-02-09T10:34:50.353Z,84.05
2023-02-09T10:35:50.041Z,84.05
2023-02-09T10:36:50.064Z,84.05
2023-02-09T10:37:50.095Z,84.05
2023-02-09T10:38:50.145Z,84.25
2023-02-09T10:39:50.147Z,83.76
2023-02-09T10:41:50.509Z,84.15
2023-02-09T10:42:50.250Z,84.25
2023-02-09T10:43:50.276Z,83.86
2023-02-09T10:44:50.290Z,83.86
2023-02-09T10:45:50.343Z,83.58
2023-02-09T10:46:50.344Z,83.67
2023-02-09T10:48:50.687Z,83.48
2023-02-09T10:49:52.441Z,83.58
2023-02-09T10:50:50.436Z,83.48
2023-02-09T10:51:51.132Z,83.48
2023-02-09T10:52:50.506Z,83.67
2023-02-09T10:53:50.524Z,83.58
2023-02-09T10:54:50.553Z,83.86
2023-02-09T10:56:50.907Z,83.76
2023-02-09T10:57:50.647Z,83.67
2023-02-09T10:58:50.717Z,83.00
2023-02-09T10:59:50.686Z,83.76
2023-02-09T11:00:50.707Z,83.58
2023-02-09T11:01:50.761Z,83.38
2023-02-09T11:02:50.787Z,83.29
2023-02-09T11:03:51.100Z,83.00
2023-02-09T11:04:50.889Z,83.38
2023-02-09T11:05:50.945Z,83.29
2023-02-09T11:06:50.881Z,83.29
2023-02-09T11:07:50.917Z,83.19
2023-02-09T11:08:50.955Z,83.19
2023-02-09T11:09:50.959Z,83.48
2023-02-09T11:10:51.287Z,83.09
2023-02-09T11:11:51.023Z,83.29
2023-02-09T11:12:51.040Z,83.29
2023-02-09T11:14:51.118Z,83.38
2023-02-09T11:15:51.138Z,83.29
2023-02-09T11:16:51.153Z,83.19
2023-02-09T11:17:51.481Z,83.29
2023-02-09T11:19:51.239Z,83.29
2023-02-09T11:20:51.278Z,83.29
2023-02-09T11:21:51.301Z,83.19
2023-02-09T11:22:51.344Z,83.29
2023-02-09T11:23:51.448Z,83.38
2023-02-09T11:24:51.384Z,83.38
2023-02-09T11:25:51.405Z,83.29
2023-02-09T11:26:51.475Z,83.19
2023-02-09T11:27:51.481Z,83.19
2023-02-09T11:28:51.482Z,83.19
2023-02-09T11:29:51.513Z,83.19
2023-02-09T11:31:51.919Z,82.90
2023-02-09T11:32:51.589Z,82.62
2023-02-09T11:33:51.618Z,82.62
2023-02-09T11:34:51.654Z,82.90
2023-02-09T11:35:51.677Z,82.71
2023-02-09T11:36:51.695Z,83.09
2023-02-09T11:38:51.753Z,82.71
2023-02-09T11:39:51.787Z,82.81
2023-02-09T11:40:51.849Z,82.71
2023-02-09T11:41:51.862Z,82.52
2023-02-09T11:42:51.889Z,82.52
2023-02-09T11:43:52.215Z,82.52
2023-02-09T11:44:51.945Z,82.81
2023-02-09T11:45:51.951Z,82.71
2023-02-09T11:46:52.293Z,82.90
2023-02-09T11:47:52.040Z,82.71
2023-02-09T11:48:52.035Z,82.94
2023-02-09T11:49:52.371Z,82.71
2023-02-09T11:50:52.118Z,82.71
2023-02-09T11:51:52.113Z,82.52
2023-02-09T11:52:52.199Z,83.09
2023-02-09T11:53:52.222Z,82.90
2023-02-09T11:54:52.214Z,82.85
2023-02-09T11:56:52.557Z,83.04
2023-02-09T11:57:52.281Z,82.81
2023-02-09T11:59:52.321Z,82.75
2023-02-09T12:00:59.700Z,82.94
2023-02-09T12:01:52.399Z,82.46
2023-02-09T12:02:52.493Z,82.42
2023-02-09T12:03:52.771Z,82.56
2023-02-09T12:04:52.676Z,82.65
2023-02-09T12:05:52.493Z,82.52
2023-02-09T12:06:52.663Z,82.46
2023-02-09T12:07:52.552Z,82.37
2023-02-09T12:08:52.570Z,82.14
2023-02-09T12:09:52.604Z,82.32
2023-02-09T12:10:52.650Z,82.56
2023-02-09T12:11:52.646Z,82.37
2023-02-09T12:12:52.676Z,82.46
2023-02-09T12:13:52.706Z,82.27
2023-02-09T12:14:52.727Z,82.27
2023-02-09T12:17:52.823Z,82.27
2023-02-09T12:18:52.841Z,82.08
2023-02-09T12:19:52.908Z,82.08
2023-02-09T12:20:52.906Z,82.37
2023-02-09T12:21:52.938Z,82.37
2023-02-09T12:22:52.956Z,82.46
2023-02-09T12:23:53.283Z,82.27
2023-02-09T12:24:53.002Z,82.46
2023-02-09T12:25:53.077Z,82.46
2023-02-09T12:26:53.054Z,81.89
2023-02-09T12:27:53.153Z,81.79
2023-02-09T12:28:53.121Z,81.98
2023-02-09T12:29:53.143Z,81.79
2023-02-09T12:30:53.505Z,81.79
2023-02-09T12:31:53.233Z,81.89
2023-02-09T12:32:53.225Z,81.79
2023-02-09T12:33:53.259Z,81.60
2023-02-09T12:34:53.275Z,81.89
2023-02-09T12:35:53.333Z,81.79
2023-02-09T12:36:53.360Z,81.89
2023-02-09T12:37:53.666Z,81.79
2023-02-09T12:38:56.921Z,81.89
2023-02-09T12:39:53.499Z,82.18
2023-02-09T12:41:53.514Z,82.18
2023-02-09T12:42:53.504Z,82.08
2023-02-09T12:43:53.528Z,82.27
2023-02-09T12:44:53.852Z,82.18
2023-02-09T12:45:53.660Z,81.89
2023-02-09T12:46:53.614Z,81.60
2023-02-09T12:47:53.631Z,81.70
2023-02-09T12:48:53.674Z,82.08
2023-02-09T12:49:53.703Z,81.89
2023-02-09T12:50:53.807Z,81.98
2023-02-09T12:51:54.067Z,81.89
2023-02-09T12:52:53.768Z,82.08
2023-02-09T12:53:53.797Z,81.60
2023-02-09T12:54:53.821Z,81.89
2023-02-09T12:55:53.856Z,81.89
2023-02-09T12:56:53.891Z,81.89
2023-02-09T12:57:54.243Z,81.41
2023-02-09T12:58:53.944Z,81.89
2023-02-09T12:59:53.999Z,81.89
2023-02-09T13:00:54.089Z,81.41
2023-02-09T13:01:54.019Z,81.79
2023-02-09T13:02:54.155Z,81.22
2023-02-09T13:03:54.409Z,81.79
2023-02-09T13:04:54.101Z,81.60
2023-02-09T13:05:54.138Z,81.41
2023-02-09T13:06:54.157Z,81.41
2023-02-09T13:07:54.284Z,81.41
2023-02-09T13:08:54.212Z,81.41
2023-02-09T13:09:55.549Z,81.60
2023-02-09T13:10:54.276Z,81.51
2023-02-09T13:11:54.303Z,81.41
2023-02-09T13:12:54.328Z,81.12
2023-02-09T13:13:54.362Z,81.02
2023-02-09T13:14:54.392Z,81.22
2023-02-09T13:15:54.407Z,81.31
2023-02-09T13:16:54.904Z,81.60
2023-02-09T13:17:54.467Z,81.60
2023-02-09T13:18:54.508Z,81.41
2023-02-09T13:19:54.547Z,81.41
2023-02-09T13:20:54.553Z,81.41
2023-02-09T13:21:54.598Z,81.70
2023-02-09T13:22:54.602Z,81.22
2023-02-09T13:23:54.663Z,81.12
2023-02-09T13:24:54.661Z,81.41
2023-02-09T13:25:54.692Z,81.60
2023-02-09T13:26:54.732Z,81.89
2023-02-09T13:27:54.764Z,81.41
2023-02-09T13:28:54.772Z,81.22
2023-02-09T13:29:55.108Z,81.22
2023-02-09T13:30:54.827Z,80.93
2023-02-09T13:31:54.941Z,81.22
2023-02-09T13:32:54.882Z,81.31
2023-02-09T13:33:54.906Z,80.93
2023-02-09T13:34:54.937Z,81.31
2023-02-09T13:35:54.966Z,81.22
2023-02-09T13:36:55.289Z,81.31
2023-02-09T13:37:55.021Z,81.12
2023-02-09T13:38:55.052Z,81.12
2023-02-09T13:39:55.198Z,81.41
2023-02-09T13:40:55.136Z,81.31
2023-02-09T13:41:55.210Z,81.41
2023-02-09T13:42:55.214Z,81.31
2023-02-09T13:43:55.596Z,81.51
2023-02-09T13:44:55.213Z,81.31
2023-02-09T13:45:55.356Z,81.70
2023-02-09T13:46:55.279Z,80.64
2023-02-09T13:47:55.296Z,81.79
2023-02-09T13:48:55.338Z,80.83
2023-02-09T13:49:55.348Z,80.64
2023-02-09T13:50:55.689Z,81.41
2023-02-09T13:51:55.405Z,80.74
2023-02-09T13:52:55.442Z,81.51
2023-02-09T13:53:55.483Z,81.31
2023-02-09T13:54:55.496Z,80.64
2023-02-09T13:55:55.537Z,81.70